Time;durP1;ratioP1;P1;durP2;ratioP2;P2;SDS_P1;SDS_P2;PMS_P1;PMS_P2;Temp;Humidity;BMP_temperature;BMP_pressure;BME280_temperature;BME280_humidity;BME280_pressure;Samples;Min_cycle;Max_cycle;Signal;HPM_P1;HPM_P2
2023/05/06 00:00:30;;;;;;;39.10;25.35;;;;;;;-148.88;100.00;-17125.47;4998082;28;20076;-76
2023/05/06 00:02:56;;;;;;;40.97;26.60;;;;;;;-148.88;100.00;-17125.47;4998064;28;20133;-76
2023/05/06 00:05:21;;;;;;;45.00;27.48;;;;;;;-148.88;100.00;-17125.47;5015513;28;20058;-76
2023/05/06 00:07:46;;;;;;;48.90;26.95;;;;;;;-148.88;100.00;-17125.47;5015481;28;20014;-76
2023/05/06 00:10:12;;;;;;;75.28;29.20;;;;;;;-148.88;100.00;-17125.47;5015469;28;20034;-76
2023/05/06 00:12:37;;;;;;;138.48;31.50;;;;;;;-148.88;100.00;-17125.47;4997755;28;20022;-77
2023/05/06 00:15:03;;;;;;;258.17;39.92;;;;;;;-148.88;100.00;-17125.47;5015332;28;20471;-76
2023/05/06 00:17:29;;;;;;;179.88;31.80;;;;;;;-148.88;100.00;-17125.47;5015246;28;20018;-76
2023/05/06 00:19:55;;;;;;;323.60;43.67;;;;;;;-148.88;100.00;-17125.47;5015320;28;20026;-76
2023/05/06 00:22:20;;;;;;;150.63;32.17;;;;;;;-148.88;100.00;-17125.47;5015233;28;20025;-76
2023/05/06 00:24:46;;;;;;;173.20;33.40;;;;;;;-148.88;100.00;-17125.47;4997589;28;20025;-76
2023/05/06 00:27:11;;;;;;;170.32;33.85;;;;;;;-148.88;100.00;-17125.47;5015137;28;20017;-76
2023/05/06 00:29:36;;;;;;;79.82;15.88;;;;;;;-148.88;100.00;-17125.47;5015128;28;20032;-76
2023/05/06 00:32:02;;;;;;;56.88;30.27;;;;;;;-148.88;100.00;-17125.47;5015092;28;20092;-76
2023/05/06 00:34:27;;;;;;;61.28;32.65;;;;;;;-148.88;100.00;-17125.47;4997362;28;20033;-76
2023/05/06 00:36:52;;;;;;;67.90;33.85;;;;;;;-148.88;100.00;-17125.47;5015416;28;20108;-77
2023/05/06 00:39:18;;;;;;;56.25;30.20;;;;;;;-148.88;100.00;-17125.47;5014954;28;20030;-76
2023/05/06 00:41:43;;;;;;;57.63;30.83;;;;;;;-148.88;100.00;-17125.47;5014956;28;20118;-76
2023/05/06 00:44:08;;;;;;;73.45;32.53;;;;;;;-148.88;100.00;-17125.47;5014780;28;20400;-76
2023/05/06 00:46:33;;;;;;;223.65;37.42;;;;;;;-148.88;100.00;-17125.47;4997274;28;20025;-77
2023/05/06 00:48:59;;;;;;;104.13;32.15;;;;;;;-148.88;100.00;-17125.47;5014763;28;20338;-76
2023/05/06 00:51:25;;;;;;;126.07;33.47;;;;;;;-148.88;100.00;-17125.47;5014734;28;20022;-76
2023/05/06 00:56:45;;;;;;;346.08;42.20;;;;;;;-148.88;100.00;-17125.47;5160283;22;20050;-83
2023/05/06 01:05:21;;;;;;;129.27;27.55;;;;;;;-148.88;100.00;-17125.47;5011644;28;20061;-84
2023/05/06 01:08:08;;;;;;;281.63;38.88;;;;;;;-148.88;100.00;-17125.47;5006246;28;20026;-84
2023/05/06 01:11:02;;;;;;;;;;;;;;;;;;;;;
2023/05/06 01:13:34;;;;;;;;;;;;;;;-148.88;100.00;-17125.47;5019168;28;20567;-83
2023/05/06 01:16:13;;;;;;;287.25;39.67;;;;;;;-148.88;100.00;-17125.47;5003512;28;19914;-84
2023/05/06 01:19:20;;;;;;;176.15;32.47;;;;;;;-148.88;100.00;-17125.47;5004558;28;20054;-84
2023/05/06 01:22:04;;;;;;;96.18;27.02;;;;;;;-148.88;100.00;-17125.47;5005257;28;20500;-85
2023/05/06 01:24:50;;;;;;;196.40;32.90;;;;;;;-148.88;100.00;-17125.47;5009833;28;20065;-84
2023/05/06 01:27:18;;;;;;;124.07;27.88;;;;;;;-148.88;100.00;-17125.47;5004269;28;20487;-84
2023/05/06 01:29:53;;;;;;;244.18;35.88;;;;;;;-148.88;100.00;-17125.47;5004413;28;20117;-84
2023/05/06 01:32:43;;;;;;;214.85;32.58;;;;;;;-148.88;100.00;-17125.47;5004366;28;20025;-85
2023/05/06 01:35:36;;;;;;;134.65;27.10;;;;;;;-148.88;100.00;-17125.47;5002197;28;20033;-84
2023/05/06 01:38:07;;;;;;;45.63;22.08;;;;;;;-148.88;100.00;-17125.47;5004647;28;20026;-84
2023/05/06 01:40:36;;;;;;;233.88;36.60;;;;;;;-148.88;100.00;-17125.47;5005148;28;20041;-84
2023/05/06 01:43:16;;;;;;;64.53;23.95;;;;;;;-148.88;100.00;-17125.47;5003372;28;20108;-84
2023/05/06 01:45:52;;;;;;;174.55;31.15;;;;;;;-148.88;100.00;-17125.47;5001460;28;20530;-84
2023/05/06 01:48:26;;;;;;;80.18;21.73;;;;;;;-148.88;100.00;-17125.47;5000986;28;20029;-84
2023/05/06 01:50:57;;;;;;;133.00;26.45;;;;;;;-148.88;100.00;-17125.47;4999400;28;20026;-84
2023/05/06 01:53:29;;;;;;;74.75;22.98;;;;;;;-148.88;100.00;-17125.47;5000006;28;20050;-85
2023/05/06 01:55:57;;;;;;;93.07;22.40;;;;;;;-148.88;100.00;-17125.47;5000712;28;20045;-83
2023/05/06 01:58:26;;;;;;;128.95;24.80;;;;;;;-148.88;100.00;-17125.47;5001606;28;20113;-84
2023/05/06 02:00:54;;;;;;;33.15;19.08;;;;;;;-148.88;100.00;-17125.47;5001267;28;20038;-84
2023/05/06 02:03:20;;;;;;;58.45;21.27;;;;;;;-148.88;100.00;-17125.47;5001834;28;20029;-84
2023/05/06 02:05:45;;;;;;;59.38;21.58;;;;;;;-148.88;100.00;-17125.47;5001534;28;20060;-84
2023/05/06 02:08:10;;;;;;;49.03;22.27;;;;;;;-148.88;100.00;-17125.47;5002264;28;20064;-85
2023/05/06 02:10:50;;;;;;;42.47;21.85;;;;;;;-148.88;100.00;-17125.47;5001521;28;20033;-85
2023/05/06 02:13:17;;;;;;;46.55;22.95;;;;;;;-148.88;100.00;-17125.47;5001027;28;20028;-85
2023/05/06 02:16:10;;;;;;;124.47;13.25;;;;;;;-148.88;100.00;-17125.47;5001200;28;20018;-84
2023/05/06 02:18:40;;;;;;;117.95;28.88;;;;;;;-148.88;100.00;-17125.47;5002016;28;20041;-85
2023/05/06 02:21:06;;;;;;;43.28;22.60;;;;;;;-148.88;100.00;-17125.47;5001652;28;20125;-84
2023/05/06 02:23:35;;;;;;;86.07;24.73;;;;;;;-148.88;100.00;-17125.47;5001334;28;20025;-84
2023/05/06 02:26:04;;;;;;;207.07;33.97;;;;;;;-148.88;100.00;-17125.47;4998404;28;20022;-84
2023/05/06 02:28:29;;;;;;;137.05;30.17;;;;;;;-148.88;100.00;-17125.47;5000132;28;20384;-83
2023/05/06 02:31:01;;;;;;;114.30;25.75;;;;;;;-148.88;100.00;-17125.47;5000171;28;20022;-84
2023/05/06 02:33:26;;;;;;;46.78;11.07;;;;;;;-148.88;100.00;-17125.47;5000824;28;20049;-84
2023/05/06 02:35:58;;;;;;;40.13;21.73;;;;;;;-148.88;100.00;-17125.47;5001150;28;20033;-84
2023/05/06 02:38:34;;;;;;;41.53;24.13;;;;;;;-148.88;100.00;-17125.47;5001585;28;20028;-85
2023/05/06 02:41:02;;;;;;;57.80;23.83;;;;;;;-148.88;100.00;-17125.47;5018584;28;20372;-84
2023/05/06 02:43:33;;;;;;;44.90;23.27;;;;;;;-148.88;100.00;-17125.47;5001131;28;20413;-85
2023/05/06 02:46:04;;;;;;;102.63;14.07;;;;;;;-148.88;100.00;-17125.47;5001161;28;20111;-84
2023/05/06 02:48:30;;;;;;;199.05;20.13;;;;;;;-148.88;100.00;-17125.47;5018893;28;20033;-84
2023/05/06 02:51:07;;;;;;;;;;;;;;;-148.88;100.00;-17125.47;5003306;28;20046;-83
2023/05/06 02:53:35;;;;;;;154.75;32.05;;;;;;;-148.88;100.00;-17125.47;4999994;28;19910;-84
2023/05/06 02:56:03;;;;;;;74.07;24.85;;;;;;;-148.88;100.00;-17125.47;5000982;28;20498;-85
2023/05/06 02:58:35;;;;;;;53.72;22.98;;;;;;;-148.88;100.00;-17125.47;5001278;28;20495;-83
2023/05/06 03:01:00;;;;;;;59.55;23.17;;;;;;;-148.88;100.00;-17125.47;4997271;28;20026;-83
2023/05/06 03:03:25;;;;;;;58.75;23.27;;;;;;;-148.88;100.00;-17125.47;4999626;28;20092;-84
2023/05/06 03:05:51;;;;;;;50.47;23.33;;;;;;;-148.88;100.00;-17125.47;5000729;28;20045;-84
2023/05/06 03:08:23;;;;;;;54.17;24.10;;;;;;;-148.88;100.00;-17125.47;5020752;28;20032;-85
2023/05/06 03:11:15;;;;;;;54.95;22.90;;;;;;;-148.88;100.00;-17125.47;5020390;28;20399;-85
2023/05/06 03:13:51;;;;;;;115.22;26.63;;;;;;;-148.88;100.00;-17125.47;5002916;28;20050;-85
2023/05/06 03:16:19;;;;;;;72.70;23.73;;;;;;;-148.88;100.00;-17125.47;5002753;28;20022;-84
2023/05/06 03:18:48;;;;;;;104.60;13.82;;;;;;;-148.88;100.00;-17125.47;5002468;28;20121;-83
2023/05/06 03:21:36;;;;;;;116.03;26.17;;;;;;;-148.88;100.00;-17125.47;5003492;28;20029;-84
2023/05/06 03:24:11;;;;;;;108.72;26.13;;;;;;;-148.88;100.00;-17125.47;4993315;28;20491;-84
2023/05/06 03:26:38;;;;;;;165.23;32.55;;;;;;;-148.88;100.00;-17125.47;5006575;28;20041;-84
2023/05/06 03:29:04;;;;;;;141.70;30.95;;;;;;;-148.88;100.00;-17125.47;5023333;28;20077;-86
2023/05/06 03:31:29;;;;;;;145.95;32.47;;;;;;;-148.88;100.00;-17125.47;5006244;28;20050;-86
2023/05/06 03:33:55;;;;;;;200.10;22.65;;;;;;;-148.88;100.00;-17125.47;5004879;28;20061;-85
2023/05/06 03:36:33;;;;;;;200.07;18.63;;;;;;;-148.88;100.00;-17125.47;5000832;28;20018;-86
2023/05/06 03:38:58;;;;;;;188.60;36.08;;;;;;;-148.88;100.00;-17125.47;5001853;28;20021;-86
2023/05/06 03:41:33;;;;;;;141.20;32.38;;;;;;;-148.88;100.00;-17125.47;5003101;28;20034;-86
2023/05/06 03:43:58;;;;;;;155.52;34.42;;;;;;;-148.88;100.00;-17125.47;5004572;28;20061;-86
2023/05/06 03:46:37;;;;;;;121.97;27.38;;;;;;;-148.88;100.00;-17125.47;5003376;28;20029;-86
2023/05/06 03:49:03;;;;;;;81.95;26.60;;;;;;;-148.88;100.00;-17125.47;5003507;28;20410;-85
2023/05/06 03:51:35;;;;;;;62.03;25.65;;;;;;;-148.88;100.00;-17125.47;5002828;28;20551;-85
2023/05/06 03:54:00;;;;;;;81.68;25.70;;;;;;;-148.88;100.00;-17125.47;5003678;28;20034;-84
2023/05/06 03:56:33;;;;;;;66.72;23.42;;;;;;;-148.88;100.00;-17125.47;5003527;28;20057;-85
2023/05/06 03:58:58;;;;;;;82.50;24.70;;;;;;;-148.88;100.00;-17125.47;5003951;28;20022;-86
2023/05/06 04:01:45;;;;;;;53.38;22.63;;;;;;;-148.88;100.00;-17125.47;5003403;28;20026;-86
2023/05/06 04:04:16;;;;;;;70.25;22.67;;;;;;;-148.88;100.00;-17125.47;5003350;28;20132;-86
2023/05/06 04:06:42;;;;;;;52.53;20.70;;;;;;;-148.88;100.00;-17125.47;5002275;28;20022;-86
2023/05/06 04:09:08;;;;;;;33.88;21.45;;;;;;;-148.88;100.00;-17125.47;5002212;28;20026;-85
2023/05/06 04:11:58;;;;;;;65.55;22.83;;;;;;;-148.88;100.00;-17125.47;5002439;28;20038;-86
2023/05/06 04:14:24;;;;;;;43.30;21.20;;;;;;;-148.88;100.00;-17125.47;4997946;28;20125;-85
2023/05/06 04:17:08;;;;;;;63.17;20.27;;;;;;;-148.88;100.00;-17125.47;5001213;28;20180;-86
2023/05/06 04:19:36;;;;;;;50.08;10.55;;;;;;;-148.88;100.00;-17125.47;5001493;28;20018;-86
2023/05/06 04:22:05;;;;;;;84.63;11.65;;;;;;;-148.88;100.00;-17125.47;5001284;28;20030;-87
2023/05/06 04:24:44;;;;;;;55.25;17.95;;;;;;;-148.88;100.00;-17125.47;5001743;28;20112;-86
2023/05/06 04:30:16;;;;;;;49.97;9.30;;;;;;;-148.88;100.00;-17125.47;5011131;28;20029;-85
2023/05/06 04:33:17;;;;;;;;;;;;;;;;;;;;;
2023/05/06 04:36:16;;;;;;;139.93;25.50;;;;;;;-148.88;100.00;-17125.47;5018261;28;20185;-86
2023/05/06 04:38:55;;;;;;;19.05;6.78;;;;;;;-148.88;100.00;-17125.47;4978363;28;20034;-86
2023/05/06 04:44:49;;;;;;;51.13;17.48;;;;;;;-148.88;100.00;-17125.47;5011618;28;20121;-86
2023/05/06 04:47:15;;;;;;;142.38;23.05;;;;;;;-148.88;100.00;-17125.47;5001089;28;20032;-86
2023/05/06 04:49:43;;;;;;;70.63;19.77;;;;;;;-148.88;100.00;-17125.47;4999105;28;20021;-86
2023/05/06 04:52:16;;;;;;;61.72;19.35;;;;;;;-148.88;100.00;-17125.47;4999995;28;20069;-85
2023/05/06 04:54:53;;;;;;;167.68;27.95;;;;;;;-148.88;100.00;-17125.47;5000586;28;20026;-86
2023/05/06 04:57:19;;;;;;;48.72;20.25;;;;;;;-148.88;100.00;-17125.47;5000877;28;20030;-86
2023/05/06 05:00:09;;;;;;;31.30;9.77;;;;;;;-148.88;100.00;-17125.47;5000745;28;20077;-86
2023/05/06 05:02:43;;;;;;;27.65;10.70;;;;;;;-148.88;100.00;-17125.47;4971043;28;20050;-90
2023/05/06 05:05:12;;;;;;;64.53;23.10;;;;;;;-148.88;100.00;-17125.47;5003324;28;20133;-86
2023/05/06 05:07:49;;;;;;;69.63;23.00;;;;;;;-148.88;100.00;-17125.47;5005130;28;20037;-86
2023/05/06 05:10:14;;;;;;;84.05;21.98;;;;;;;-148.88;100.00;-17125.47;5003184;28;20030;-87
2023/05/06 05:12:44;;;;;;;64.85;21.73;;;;;;;-148.88;100.00;-17125.47;5002955;28;20026;-86
2023/05/06 05:15:10;;;;;;;55.42;9.40;;;;;;;-148.88;100.00;-17125.47;5002145;28;20029;-86
2023/05/06 05:17:36;;;;;;;70.65;11.68;;;;;;;-148.88;100.00;-17125.47;5001509;28;20081;-86
2023/05/06 05:20:08;;;;;;;40.90;18.92;;;;;;;-148.88;100.00;-17125.47;5001226;28;20033;-86
2023/05/06 05:22:37;;;;;;;160.68;26.25;;;;;;;-148.88;100.00;-17125.47;5001910;28;20476;-86
2023/05/06 05:25:20;;;;;;;17.13;7.30;;;;;;;-148.88;100.00;-17125.47;4998349;28;20034;-85
2023/05/06 05:27:46;;;;;;;129.98;13.00;;;;;;;-148.88;100.00;-17125.47;4997763;28;20052;-86
2023/05/06 05:30:24;;;;;;;36.05;16.58;;;;;;;-148.88;100.00;-17125.47;5000562;28;20444;-86
2023/05/06 05:32:51;;;;;;;108.47;20.60;;;;;;;-148.88;100.00;-17125.47;5001621;28;20176;-85
2023/05/06 05:35:38;;;;;;;66.85;18.33;;;;;;;-148.88;100.00;-17125.47;5001124;28;20388;-86
2023/05/06 05:38:31;;;;;;;36.28;17.58;;;;;;;-148.88;100.00;-17125.47;5001393;28;20030;-85
2023/05/06 05:41:25;;;;;;;43.85;8.77;;;;;;;-148.88;100.00;-17125.47;5001302;28;20025;-86
2023/05/06 05:44:13;;;;;;;27.20;15.40;;;;;;;-148.88;100.00;-17125.47;4992970;28;20098;-86
2023/05/06 05:46:48;;;;;;;31.33;16.95;;;;;;;-148.88;100.00;-17125.47;5000946;28;20395;-86
2023/05/06 05:49:28;;;;;;;57.55;20.20;;;;;;;-148.88;100.00;-17125.47;5000677;28;20018;-86
2023/05/06 05:52:02;;;;;;;61.50;18.42;;;;;;;-148.88;100.00;-17125.47;5001344;28;20025;-85
2023/05/06 05:54:36;;;;;;;161.77;26.10;;;;;;;-148.88;100.00;-17125.47;4999824;28;20492;-86
2023/05/06 05:57:13;;;;;;;54.05;19.02;;;;;;;-148.88;100.00;-17125.47;5000045;28;20476;-86
2023/05/06 05:59:47;;;;;;;46.72;18.98;;;;;;;-148.88;100.00;-17125.47;4997875;28;20121;-86
2023/05/06 06:02:16;;;;;;;44.70;18.15;;;;;;;-148.88;100.00;-17125.47;4998952;28;20030;-85
2023/05/06 06:04:44;;;;;;;204.77;30.90;;;;;;;-148.88;100.00;-17125.47;5000141;28;20040;-86
2023/05/06 06:07:16;;;;;;;292.55;38.10;;;;;;;-148.88;100.00;-17125.47;5000878;28;20049;-84
2023/05/06 06:09:41;;;;;;;118.80;21.52;;;;;;;-148.88;100.00;-17125.47;5001598;28;20542;-86
2023/05/06 06:12:36;;;;;;;441.35;41.88;;;;;;;-148.88;100.00;-17125.47;5001827;28;20022;-86
2023/05/06 06:18:19;;;;;;;54.53;19.48;;;;;;;-148.88;100.00;-17125.47;5019714;28;20053;-84
2023/05/06 06:21:10;;;;;;;97.25;21.85;;;;;;;-148.88;100.00;-17125.47;4994045;28;20037;-86
2023/05/06 06:23:38;;;;;;;42.03;18.75;;;;;;;-148.88;100.00;-17125.47;5021369;28;20460;-87
2023/05/06 06:26:35;;;;;;;37.72;17.83;;;;;;;-148.88;100.00;-17125.47;5004020;28;20091;-86
2023/05/06 06:29:13;;;;;;;52.03;20.33;;;;;;;-148.88;100.00;-17125.47;5004136;28;20033;-85
2023/05/06 06:31:54;;;;;;;44.17;20.48;;;;;;;-148.88;100.00;-17125.47;4999492;28;20443;-86
2023/05/06 06:34:42;;;;;;;53.22;20.75;;;;;;;-148.88;100.00;-17125.47;4999661;28;20037;-86
2023/05/06 06:37:20;;;;;;;49.63;19.70;;;;;;;-148.88;100.00;-17125.47;4999493;28;20030;-85
2023/05/06 06:39:58;;;;;;;;;;;;;;;;;;;;;
2023/05/06 06:42:35;;;;;;;112.30;25.58;;;;;;;-148.88;100.00;-17125.47;5020450;28;20125;-85
2023/05/06 06:45:29;;;;;;;50.33;22.20;;;;;;;-148.88;100.00;-17125.47;5003691;28;20068;-85
2023/05/06 06:48:29;;;;;;;43.03;20.23;;;;;;;-148.88;100.00;-17125.47;5012656;28;20057;-84
2023/05/06 06:51:08;;;;;;;52.30;19.98;;;;;;;-148.88;100.00;-17125.47;5000793;28;20037;-84
2023/05/06 06:53:47;;;;;;;33.45;18.73;;;;;;;-148.88;100.00;-17125.47;5005026;28;20495;-86
2023/05/06 06:56:32;;;;;;;55.22;20.35;;;;;;;-148.88;100.00;-17125.47;5004935;28;20053;-86
2023/05/06 06:59:19;;;;;;;45.58;18.25;;;;;;;-148.88;100.00;-17125.47;5001056;28;20034;-86
2023/05/06 07:01:45;;;;;;;37.03;18.45;;;;;;;-148.88;100.00;-17125.47;5010366;28;20029;-87
2023/05/06 07:04:59;;;;;;;40.45;19.27;;;;;;;-148.88;100.00;-17125.47;5011172;28;20034;-86
2023/05/06 07:07:20;;;;;;;44.85;24.10;;;;;;;-148.88;100.00;-17125.47;5023408;28;20026;-86
2023/05/06 07:10:12;;;;;;;32.20;19.77;;;;;;;-148.88;100.00;-17125.47;5005879;28;20144;-85
2023/05/06 07:13:14;;;;;;;31.23;19.85;;;;;;;-148.88;100.00;-17125.47;5021989;28;20026;-85
2023/05/06 07:16:04;;;;;;;41.90;20.40;;;;;;;-148.88;100.00;-17125.47;5022862;28;20058;-85
2023/05/06 07:19:05;;;;;;;38.60;19.25;;;;;;;-148.88;100.00;-17125.47;5007309;28;20410;-85
2023/05/06 07:21:50;;;;;;;56.22;23.33;;;;;;;-148.88;100.00;-17125.47;5023564;28;20033;-85
2023/05/06 07:24:18;;;;;;;38.75;9.98;;;;;;;-148.88;100.00;-17125.47;5025746;28;20038;-84
2023/05/06 07:26:47;;;;;;;34.97;20.80;;;;;;;-148.88;100.00;-17125.47;5009930;28;20042;-85
2023/05/06 07:29:30;;;;;;;27.88;18.73;;;;;;;-148.88;100.00;-17125.47;5009452;28;20400;-85
2023/05/06 07:32:05;;;;;;;30.77;18.98;;;;;;;-148.88;100.00;-17125.47;5009069;28;20026;-84
2023/05/06 07:34:35;;;;;;;32.50;19.60;;;;;;;-148.88;100.00;-17125.47;5008544;28;20230;-86
2023/05/06 07:37:41;;;;;;;29.83;19.35;;;;;;;-148.88;100.00;-17125.47;5009414;28;20034;-86
2023/05/06 07:40:39;;;;;;;27.58;18.30;;;;;;;-148.88;100.00;-17125.47;5007374;28;20037;-85
2023/05/06 07:43:26;;;;;;;29.45;20.02;;;;;;;-148.88;100.00;-17125.47;5007828;28;20025;-86
2023/05/06 07:46:01;;;;;;;31.55;21.13;;;;;;;-148.88;100.00;-17125.47;5002247;28;20079;-85
2023/05/06 07:48:35;;;;;;;32.08;20.55;;;;;;;-148.88;100.00;-17125.47;5002741;28;20377;-85
2023/05/06 07:51:20;;;;;;;29.58;20.65;;;;;;;-148.88;100.00;-17125.47;5004420;28;20033;-85
2023/05/06 07:53:48;;;;;;;29.58;20.48;;;;;;;-148.88;100.00;-17125.47;5007373;28;20053;-84
2023/05/06 07:56:27;;;;;;;28.98;20.05;;;;;;;-148.88;100.00;-17125.47;5005035;28;20034;-85
2023/05/06 07:58:55;;;;;;;28.17;20.42;;;;;;;-148.88;100.00;-17125.47;5006811;28;20042;-85
2023/05/06 08:01:28;;;;;;;27.25;20.05;;;;;;;-148.88;100.00;-17125.47;5006200;28;20092;-86
2023/05/06 08:03:54;;;;;;;24.50;17.30;;;;;;;-148.88;100.00;-17125.47;5007688;28;20057;-85
2023/05/06 08:06:33;;;;;;;27.55;17.38;;;;;;;-148.88;100.00;-17125.47;5007879;28;20260;-85
2023/05/06 08:09:00;;;;;;;25.63;17.88;;;;;;;-148.88;100.00;-17125.47;5007946;28;20021;-83
2023/05/06 08:11:29;;;;;;;24.67;17.58;;;;;;;-148.88;100.00;-17125.47;5006477;28;20086;-85
2023/05/06 08:17:02;;;;;;;27.10;19.00;;;;;;;-148.88;100.00;-17125.47;5009030;28;20033;-86
2023/05/06 08:19:59;;;;;;;25.98;18.20;;;;;;;-148.88;100.00;-17125.47;5007496;28;20026;-85
2023/05/06 08:22:47;;;;;;;24.00;17.95;;;;;;;-148.88;100.00;-17125.47;4992597;28;20383;-84
2023/05/06 08:25:28;;;;;;;;;;;;;;;;;;;;;
2023/05/06 08:28:14;;;;;;;22.73;17.42;;;;;;;-148.88;100.00;-17125.47;5021989;28;20108;-85
2023/05/06 08:30:46;;;;;;;27.25;17.77;;;;;;;-148.88;100.00;-17125.47;5022438;28;20034;-85
2023/05/06 08:33:17;;;;;;;25.85;17.90;;;;;;;-148.88;100.00;-17125.47;5006082;28;20026;-85
2023/05/06 08:36:02;;;;;;;24.63;16.88;;;;;;;-148.88;100.00;-17125.47;5024024;28;20109;-85
2023/05/06 08:38:49;;;;;;;26.15;17.73;;;;;;;-148.88;100.00;-17125.47;5006544;28;20022;-86
2023/05/06 08:41:56;;;;;;;22.50;17.35;;;;;;;-148.88;100.00;-17125.47;5006522;28;20064;-86
2023/05/06 08:44:32;;;;;;;24.17;17.13;;;;;;;-148.88;100.00;-17125.47;5006240;28;20120;-86
2023/05/06 08:47:17;;;;;;;22.48;16.27;;;;;;;-148.88;100.00;-17125.47;5006727;28;20030;-86
2023/05/06 08:49:45;;;;;;;20.98;15.07;;;;;;;-148.88;100.00;-17125.47;5005935;28;20387;-86
2023/05/06 08:52:16;;;;;;;20.48;15.40;;;;;;;-148.88;100.00;-17125.47;5024448;28;20040;-86
2023/05/06 08:54:44;;;;;;;19.52;15.52;;;;;;;-148.88;100.00;-17125.47;5011110;28;20484;-85
2023/05/06 08:57:48;;;;;;;22.13;15.85;;;;;;;-148.88;100.00;-17125.47;5019386;28;20034;-86
2023/05/06 09:00:34;;;;;;;19.75;14.93;;;;;;;-148.88;100.00;-17125.47;4941878;29;20422;-85
2023/05/06 09:03:06;;;;;;;17.60;12.88;;;;;;;-148.88;100.00;-17125.47;4945348;29;20118;-86
2023/05/06 09:05:42;;;;;;;14.40;12.35;;;;;;;-148.88;100.00;-17125.47;4929037;29;20040;-86
2023/05/06 09:08:27;;;;;;;15.18;11.35;;;;;;;-148.88;100.00;-17125.47;4944746;29;20050;-86
2023/05/06 09:10:53;;;;;;;15.57;12.02;;;;;;;-148.88;100.00;-17125.47;4998919;28;20053;-86
2023/05/06 09:13:31;;;;;;;14.77;11.25;;;;;;;-148.88;100.00;-17125.47;5024960;28;20055;-86
2023/05/06 09:16:55;;;;;;;14.52;11.40;;;;;;;-148.88;100.00;-17125.47;5006987;28;20513;-86
2023/05/06 09:19:52;;;;;;;13.93;10.77;;;;;;;-148.88;100.00;-17125.47;4985850;28;20063;-86
2023/05/06 09:22:39;;;;;;;12.93;11.15;;;;;;;-148.88;100.00;-17125.47;5006939;28;20061;-86
2023/05/06 09:25:10;;;;;;;15.43;11.88;;;;;;;-148.88;100.00;-17125.47;5007497;28;20037;-86
2023/05/06 09:27:35;;;;;;;15.85;12.15;;;;;;;-148.88;100.00;-17125.47;5007817;28;20087;-86
2023/05/06 09:30:19;;;;;;;13.95;11.85;;;;;;;-148.88;100.00;-17125.47;5007430;28;20026;-86
2023/05/06 09:32:51;;;;;;;13.27;11.23;;;;;;;-148.88;100.00;-17125.47;5001038;28;20483;-85
2023/05/06 09:35:56;;;;;;;12.90;10.00;;;;;;;-148.88;100.00;-17125.47;5006720;28;20157;-84
2023/05/06 09:38:55;;;;;;;13.00;10.80;;;;;;;-148.88;100.00;-17125.47;5002769;28;20037;-85
2023/05/06 09:41:53;;;;;;;12.35;9.77;;;;;;;-148.88;100.00;-17125.47;5000785;28;20098;-85
2023/05/06 09:44:36;;;;;;;11.32;8.73;;;;;;;-148.88;100.00;-17125.47;5001686;28;20057;-85
2023/05/06 09:50:17;;;;;;;10.85;9.35;;;;;;;-148.88;100.00;-17125.47;4960029;29;20116;-85
2023/05/06 09:53:09;;;;;;;11.50;9.77;;;;;;;-148.88;100.00;-17125.47;4943712;29;20039;-85
2023/05/06 09:56:07;;;;;;;10.63;8.95;;;;;;;-148.88;100.00;-17125.47;5002956;28;20040;-83
2023/05/06 09:58:47;;;;;;;11.60;9.10;;;;;;;-148.88;100.00;-17125.47;5001718;28;20066;-84
2023/05/06 10:01:53;;;;;;;11.23;8.98;;;;;;;-148.88;100.00;-17125.47;5018775;28;20034;-85
2023/05/06 10:04:28;;;;;;;11.18;8.95;;;;;;;-148.88;100.00;-17125.47;5016438;28;20131;-85
2023/05/06 10:06:59;;;;;;;11.13;9.05;;;;;;;-148.88;100.00;-17125.47;5000514;28;20542;-84
2023/05/06 10:12:50;;;;;;;8.82;7.78;;;;;;;-148.88;100.00;-17125.47;5017417;28;20492;-84
2023/05/06 10:15:18;;;;;;;9.43;7.75;;;;;;;-148.88;100.00;-17125.47;4998604;28;20041;-84
2023/05/06 10:17:46;;;;;;;10.80;8.68;;;;;;;-148.88;100.00;-17125.47;5017153;28;20540;-84
2023/05/06 10:20:19;;;;;;;10.20;7.82;;;;;;;-148.88;100.00;-17125.47;4999868;28;20025;-85
2023/05/06 10:23:03;;;;;;;9.82;7.35;;;;;;;-148.88;100.00;-17125.47;5000039;28;20017;-84
2023/05/06 10:25:52;;;;;;;9.07;7.32;;;;;;;-148.88;97.56;-17125.47;5000152;28;20057;-84
2023/05/06 10:28:32;;;;;;;;;;;;;;;;;;;;;
2023/05/06 10:38:00;;;;;;;9.98;6.88;;;;;;;-148.88;93.70;-17125.47;4987852;28;20113;-85
2023/05/06 10:40:34;;;;;;;10.60;8.23;;;;;;;-148.88;100.00;-17125.47;5000551;28;20030;-84
2023/05/06 10:43:55;;;;;;;;;;;;;;;;;;;;;
2023/05/06 10:50:03;;;;;;;8.50;6.85;;;;;;;-148.88;94.60;-17125.47;5014791;28;20529;-85
2023/05/06 10:52:49;;;;;;;7.03;6.20;;;;;;;-148.88;90.58;-17125.47;4995459;28;20041;-84
2023/05/06 10:55:36;;;;;;;7.20;5.40;;;;;;;-148.88;87.19;-17125.47;4998674;28;20033;-84
2023/05/06 10:58:14;;;;;;;7.65;4.60;;;;;;;-148.88;88.91;-17125.47;5001142;28;20087;-85
2023/05/06 11:00:54;;;;;;;7.43;5.00;;;;;;;-148.88;88.79;-17125.47;5001670;28;20034;-85
2023/05/06 11:07:06;;;;;;;6.32;4.22;;;;;;;-148.88;80.32;-17125.47;5011342;28;20045;-84
2023/05/06 11:09:54;;;;;;;4.63;3.60;;;;;;;-148.88;84.24;-17125.47;4986395;28;20393;-85
2023/05/06 11:12:30;;;;;;;4.97;4.13;;;;;;;-148.88;82.47;-17125.47;5000745;28;20041;-85
2023/05/06 11:15:45;;;;;;;6.35;3.72;;;;;;;-148.88;82.09;-17125.47;4984420;28;20038;-85
2023/05/06 11:18:46;;;;;;;;;;;;;;;-148.88;82.27;-17125.47;5001152;28;20045;-86
2023/05/06 11:21:23;;;;;;;6.13;4.45;;;;;;;-148.88;84.78;-17125.47;4925047;29;19921;-85
2023/05/06 11:24:18;;;;;;;5.38;4.10;;;;;;;-148.88;79.10;-17125.47;4993109;28;20120;-85
2023/05/06 11:26:57;;;;;;;6.35;3.88;;;;;;;-148.88;79.67;-17125.47;5002720;28;20026;-85
2023/05/06 11:32:50;;;;;;;5.38;4.18;;;;;;;-148.88;81.38;-17125.47;5010760;28;20068;-85
2023/05/06 11:35:54;;;;;;;5.07;4.10;;;;;;;-148.88;78.81;-17125.47;5002236;28;20487;-83
2023/05/06 11:38:23;;;;;;;;;;;;;;;-148.88;75.90;-17125.47;5000596;28;20397;-83
2023/05/06 11:41:00;;;;;;;5.40;3.70;;;;;;;-148.88;80.83;-17125.47;4997770;28;20383;-85
2023/05/06 11:43:34;;;;;;;5.72;4.15;;;;;;;-148.88;74.56;-17125.47;4998931;28;20025;-85
2023/05/06 11:46:14;;;;;;;4.85;3.65;;;;;;;-148.88;79.68;-17125.47;5001199;28;20113;-85
2023/05/06 11:48:46;;;;;;;4.80;3.90;;;;;;;-148.88;77.44;-17125.47;5004082;28;20022;-85
2023/05/06 11:51:39;;;;;;;6.03;4.07;;;;;;;-148.88;77.93;-17125.47;5003970;28;20029;-85
2023/05/06 11:54:32;;;;;;;6.73;3.90;;;;;;;-148.88;79.46;-17125.47;5003683;28;20026;-83
2023/05/06 11:56:57;;;;;;;5.80;4.05;;;;;;;-148.88;74.46;-17125.47;5019224;28;20037;-85
2023/05/06 11:59:54;;;;;;;5.00;3.25;;;;;;;-148.88;70.75;-17125.47;5005935;28;20113;-85
2023/05/06 12:02:27;;;;;;;4.20;3.42;;;;;;;-148.88;74.41;-17125.47;5005478;28;20097;-85
2023/05/06 12:05:12;;;;;;;;;;;;;;;-148.88;71.30;-17125.47;5023946;28;20475;-86
2023/05/06 12:07:56;;;;;;;5.03;2.97;;;;;;;-148.88;73.00;-17125.47;5005985;28;19918;-85
2023/05/06 12:11:04;;;;;;;;;;;;;;;;;;;;;
2023/05/06 12:13:39;;;;;;;6.40;4.22;;;;;;;-148.88;72.75;-17125.47;5023547;28;20117;-85
2023/05/06 12:16:08;;;;;;;4.07;3.35;;;;;;;-148.88;66.60;-17125.47;5000629;28;20455;-83
2023/05/06 12:18:52;;;;;;;6.78;3.20;;;;;;;-148.88;69.28;-17125.47;5003866;28;20048;-85
2023/05/06 12:21:36;;;;;;;4.82;2.83;;;;;;;-148.88;67.40;-17125.47;5021505;28;20026;-84
2023/05/06 12:24:02;;;;;;;5.10;3.35;;;;;;;-148.88;66.68;-17125.47;5004142;28;20088;-84
2023/05/06 12:26:47;;;;;;;4.40;2.80;;;;;;;-148.88;63.58;-17125.47;5003378;28;20022;-85
2023/05/06 12:29:21;;;;;;;5.03;3.08;;;;;;;-148.88;66.03;-17125.47;5022119;28;20034;-85